sensor_id;sensor_type;location;lat;lon;timestamp;temperature;humidity
67101;DHT22;54019;61.746;16.106;2022-08-21T00:00:48;24.00;57.50
67101;DHT22;54019;61.746;16.106;2022-08-21T00:03:15;24.00;56.80
67101;DHT22;54019;61.746;16.106;2022-08-21T00:05:43;24.00;57.00
67101;DHT22;54019;61.746;16.106;2022-08-21T00:08:09;23.90;57.20
67101;DHT22;54019;61.746;16.106;2022-08-21T00:10:35;24.00;57.40
67101;DHT22;54019;61.746;16.106;2022-08-21T00:13:01;23.90;57.00
67101;DHT22;54019;61.746;16.106;2022-08-21T00:15:30;23.90;57.40
67101;DHT22;54019;61.746;16.106;2022-08-21T00:17:57;24.00;57.20
67101;DHT22;54019;61.746;16.106;2022-08-21T00:20:25;23.90;57.10
67101;DHT22;54019;61.746;16.106;2022-08-21T00:22:51;23.90;57.30
67101;DHT22;54019;61.746;16.106;2022-08-21T00:25:18;23.90;57.30
67101;DHT22;54019;61.746;16.106;2022-08-21T00:27:44;23.90;57.30
67101;DHT22;54019;61.746;16.106;2022-08-21T00:30:12;23.90;57.20
67101;DHT22;54019;61.746;16.106;2022-08-21T00:32:40;23.90;57.20
67101;DHT22;54019;61.746;16.106;2022-08-21T00:35:10;24.00;56.70
67101;DHT22;54019;61.746;16.106;2022-08-21T00:37:36;24.00;56.50
67101;DHT22;54019;61.746;16.106;2022-08-21T00:40:03;23.90;56.40
67101;DHT22;54019;61.746;16.106;2022-08-21T00:42:29;23.90;56.50
67101;DHT22;54019;61.746;16.106;2022-08-21T00:44:56;23.90;56.40
67101;DHT22;54019;61.746;16.106;2022-08-21T00:47:22;23.90;56.50
67101;DHT22;54019;61.746;16.106;2022-08-21T00:49:48;23.90;56.50
67101;DHT22;54019;61.746;16.106;2022-08-21T00:52:19;23.90;56.40
67101;DHT22;54019;61.746;16.106;2022-08-21T00:54:47;23.90;56.70
67101;DHT22;54019;61.746;16.106;2022-08-21T00:57:16;23.90;56.60
67101;DHT22;54019;61.746;16.106;2022-08-21T00:59:45;23.90;56.10
67101;DHT22;54019;61.746;16.106;2022-08-21T01:02:12;23.90;56.30
67101;DHT22;54019;61.746;16.106;2022-08-21T01:04:38;23.90;56.10
67101;DHT22;54019;61.746;16.106;2022-08-21T01:07:05;23.90;56.50
67101;DHT22;54019;61.746;16.106;2022-08-21T01:09:32;23.90;56.40
67101;DHT22;54019;61.746;16.106;2022-08-21T01:11:58;23.90;56.40
67101;DHT22;54019;61.746;16.106;2022-08-21T01:14:24;23.90;56.20
67101;DHT22;54019;61.746;16.106;2022-08-21T01:16:52;23.90;55.70
67101;DHT22;54019;61.746;16.106;2022-08-21T01:19:21;23.80;55.70
67101;DHT22;54019;61.746;16.106;2022-08-21T01:21:49;23.80;56.00
67101;DHT22;54019;61.746;16.106;2022-08-21T01:24:15;23.80;56.40
67101;DHT22;54019;61.746;16.106;2022-08-21T01:26:42;23.80;56.50
67101;DHT22;54019;61.746;16.106;2022-08-21T01:29:13;23.90;55.80
67101;DHT22;54019;61.746;16.106;2022-08-21T01:31:40;23.80;56.10
67101;DHT22;54019;61.746;16.106;2022-08-21T01:34:07;23.90;56.30
67101;DHT22;54019;61.746;16.106;2022-08-21T01:36:33;23.80;55.60
67101;DHT22;54019;61.746;16.106;2022-08-21T01:39:02;23.90;55.70
67101;DHT22;54019;61.746;16.106;2022-08-21T01:41:28;23.80;55.90
67101;DHT22;54019;61.746;16.106;2022-08-21T01:43:54;23.80;55.60
67101;DHT22;54019;61.746;16.106;2022-08-21T01:46:20;23.80;55.30
67101;DHT22;54019;61.746;16.106;2022-08-21T01:48:46;23.90;55.30
67101;DHT22;54019;61.746;16.106;2022-08-21T01:51:12;23.90;55.90
67101;DHT22;54019;61.746;16.106;2022-08-21T01:53:38;23.80;55.70
67101;DHT22;54019;61.746;16.106;2022-08-21T01:56:09;23.80;56.10
67101;DHT22;54019;61.746;16.106;2022-08-21T01:58:35;23.90;56.10
67101;DHT22;54019;61.746;16.106;2022-08-21T02:01:02;23.90;55.80
67101;DHT22;54019;61.746;16.106;2022-08-21T02:03:28;23.80;55.40
67101;DHT22;54019;61.746;16.106;2022-08-21T02:05:55;23.80;55.80
67101;DHT22;54019;61.746;16.106;2022-08-21T02:08:21;23.80;55.40
67101;DHT22;54019;61.746;16.106;2022-08-21T02:10:47;23.90;55.80
67101;DHT22;54019;61.746;16.106;2022-08-21T02:13:14;23.90;54.90
67101;DHT22;54019;61.746;16.106;2022-08-21T02:15:40;23.90;55.70
67101;DHT22;54019;61.746;16.106;2022-08-21T02:18:06;23.90;55.40
67101;DHT22;54019;61.746;16.106;2022-08-21T02:20:34;23.80;55.70
67101;DHT22;54019;61.746;16.106;2022-08-21T02:23:00;23.80;55.80
67101;DHT22;54019;61.746;16.106;2022-08-21T02:25:27;23.90;55.90
67101;DHT22;54019;61.746;16.106;2022-08-21T02:27:54;23.90;55.90
67101;DHT22;54019;61.746;16.106;2022-08-21T02:30:25;23.90;55.10
67101;DHT22;54019;61.746;16.106;2022-08-21T02:32:51;23.80;55.00
67101;DHT22;54019;61.746;16.106;2022-08-21T02:35:18;23.90;55.40
67101;DHT22;54019;61.746;16.106;2022-08-21T02:37:46;23.80;54.60
67101;DHT22;54019;61.746;16.106;2022-08-21T02:40:14;23.80;54.60
67101;DHT22;54019;61.746;16.106;2022-08-21T02:42:41;23.80;54.70
67101;DHT22;54019;61.746;16.106;2022-08-21T02:45:08;23.80;54.50
67101;DHT22;54019;61.746;16.106;2022-08-21T02:47:36;23.80;54.90
67101;DHT22;54019;61.746;16.106;2022-08-21T02:50:03;23.80;54.40
67101;DHT22;54019;61.746;16.106;2022-08-21T02:52:29;23.80;55.00
67101;DHT22;54019;61.746;16.106;2022-08-21T02:54:55;23.80;54.70
67101;DHT22;54019;61.746;16.106;2022-08-21T02:57:21;23.80;55.20
67101;DHT22;54019;61.746;16.106;2022-08-21T02:59:47;23.80;54.70
67101;DHT22;54019;61.746;16.106;2022-08-21T03:02:13;23.80;54.60
67101;DHT22;54019;61.746;16.106;2022-08-21T03:04:40;23.80;54.80
67101;DHT22;54019;61.746;16.106;2022-08-21T03:07:07;23.80;54.40
67101;DHT22;54019;61.746;16.106;2022-08-21T03:09:33;23.70;54.20
67101;DHT22;54019;61.746;16.106;2022-08-21T03:11:59;23.80;54.50
67101;DHT22;54019;61.746;16.106;2022-08-21T03:14:25;23.80;54.10
67101;DHT22;54019;61.746;16.106;2022-08-21T03:16:50;23.80;54.30
67101;DHT22;54019;61.746;16.106;2022-08-21T03:19:16;23.80;54.80
67101;DHT22;54019;61.746;16.106;2022-08-21T03:21:44;23.80;54.20
67101;DHT22;54019;61.746;16.106;2022-08-21T03:24:10;23.70;54.60
67101;DHT22;54019;61.746;16.106;2022-08-21T03:26:36;23.80;54.40
67101;DHT22;54019;61.746;16.106;2022-08-21T03:29:02;23.70;54.50
67101;DHT22;54019;61.746;16.106;2022-08-21T03:31:28;23.70;54.60
67101;DHT22;54019;61.746;16.106;2022-08-21T03:33:54;23.70;54.40
67101;DHT22;54019;61.746;16.106;2022-08-21T03:36:20;23.70;54.30
67101;DHT22;54019;61.746;16.106;2022-08-21T03:38:47;23.70;55.00
67101;DHT22;54019;61.746;16.106;2022-08-21T03:41:13;23.70;55.30
67101;DHT22;54019;61.746;16.106;2022-08-21T03:43:39;23.80;55.80
67101;DHT22;54019;61.746;16.106;2022-08-21T03:46:05;23.90;55.20
67101;DHT22;54019;61.746;16.106;2022-08-21T03:48:32;23.90;55.20
67101;DHT22;54019;61.746;16.106;2022-08-21T03:50:58;23.90;55.30
67101;DHT22;54019;61.746;16.106;2022-08-21T03:53:24;23.90;55.10
67101;DHT22;54019;61.746;16.106;2022-08-21T03:55:52;23.90;55.20
67101;DHT22;54019;61.746;16.106;2022-08-21T03:58:19;23.90;55.50
67101;DHT22;54019;61.746;16.106;2022-08-21T04:00:47;23.90;55.40
67101;DHT22;54019;61.746;16.106;2022-08-21T04:03:13;23.80;54.70
67101;DHT22;54019;61.746;16.106;2022-08-21T04:05:39;23.90;54.80
67101;DHT22;54019;61.746;16.106;2022-08-21T04:08:05;23.80;55.50
67101;DHT22;54019;61.746;16.106;2022-08-21T04:10:34;23.80;55.60
67101;DHT22;54019;61.746;16.106;2022-08-21T04:13:02;23.80;55.00
67101;DHT22;54019;61.746;16.106;2022-08-21T04:15:28;23.80;54.50
67101;DHT22;54019;61.746;16.106;2022-08-21T04:17:54;23.80;55.00
67101;DHT22;54019;61.746;16.106;2022-08-21T04:20:21;23.70;54.90
67101;DHT22;54019;61.746;16.106;2022-08-21T04:22:47;23.80;54.00
67101;DHT22;54019;61.746;16.106;2022-08-21T04:25:15;23.80;53.80
67101;DHT22;54019;61.746;16.106;2022-08-21T04:27:41;23.80;54.40
67101;DHT22;54019;61.746;16.106;2022-08-21T04:30:09;23.80;53.80
67101;DHT22;54019;61.746;16.106;2022-08-21T04:32:36;23.80;54.20
67101;DHT22;54019;61.746;16.106;2022-08-21T04:35:04;23.80;54.40
67101;DHT22;54019;61.746;16.106;2022-08-21T04:37:31;23.80;54.40
67101;DHT22;54019;61.746;16.106;2022-08-21T04:39:57;23.80;53.80
67101;DHT22;54019;61.746;16.106;2022-08-21T04:42:23;23.80;54.00
67101;DHT22;54019;61.746;16.106;2022-08-21T04:44:48;23.80;53.80
67101;DHT22;54019;61.746;16.106;2022-08-21T04:47:16;23.70;53.80
67101;DHT22;54019;61.746;16.106;2022-08-21T04:49:43;23.80;54.30
67101;DHT22;54019;61.746;16.106;2022-08-21T04:52:09;23.80;54.00
67101;DHT22;54019;61.746;16.106;2022-08-21T04:54:35;23.70;53.70
67101;DHT22;54019;61.746;16.106;2022-08-21T04:57:04;23.70;53.80
67101;DHT22;54019;61.746;16.106;2022-08-21T04:59:33;23.70;53.60
67101;DHT22;54019;61.746;16.106;2022-08-21T05:02:01;23.70;53.80
67101;DHT22;54019;61.746;16.106;2022-08-21T05:04:30;23.70;53.60
67101;DHT22;54019;61.746;16.106;2022-08-21T05:06:58;23.70;53.60
67101;DHT22;54019;61.746;16.106;2022-08-21T05:09:25;23.70;53.70
67101;DHT22;54019;61.746;16.106;2022-08-21T05:11:52;23.70;53.60
67101;DHT22;54019;61.746;16.106;2022-08-21T05:14:19;23.70;53.50
67101;DHT22;54019;61.746;16.106;2022-08-21T05:16:45;23.70;54.00
67101;DHT22;54019;61.746;16.106;2022-08-21T05:19:11;23.70;54.80
67101;DHT22;54019;61.746;16.106;2022-08-21T05:21:41;23.70;55.90
67101;DHT22;54019;61.746;16.106;2022-08-21T05:24:07;23.70;55.00
67101;DHT22;54019;61.746;16.106;2022-08-21T05:26:33;23.80;55.10
67101;DHT22;54019;61.746;16.106;2022-08-21T05:28:59;23.90;55.10
67101;DHT22;54019;61.746;16.106;2022-08-21T05:31:26;24.00;55.00
67101;DHT22;54019;61.746;16.106;2022-08-21T05:33:52;24.20;54.70
67101;DHT22;54019;61.746;16.106;2022-08-21T05:36:18;24.30;54.10
67101;DHT22;54019;61.746;16.106;2022-08-21T05:38:45;24.40;53.50
67101;DHT22;54019;61.746;16.106;2022-08-21T05:41:11;24.50;53.30
67101;DHT22;54019;61.746;16.106;2022-08-21T05:43:37;24.50;52.20
67101;DHT22;54019;61.746;16.106;2022-08-21T05:46:04;24.40;51.20
67101;DHT22;54019;61.746;16.106;2022-08-21T05:48:30;24.40;51.20
67101;DHT22;54019;61.746;16.106;2022-08-21T05:50:57;24.20;50.60
67101;DHT22;54019;61.746;16.106;2022-08-21T05:53:23;24.20;52.90
67101;DHT22;54019;61.746;16.106;2022-08-21T05:55:51;24.20;52.40
67101;DHT22;54019;61.746;16.106;2022-08-21T05:58:20;24.10;51.30
67101;DHT22;54019;61.746;16.106;2022-08-21T06:00:47;24.10;51.10
67101;DHT22;54019;61.746;16.106;2022-08-21T06:03:15;24.10;50.70
67101;DHT22;54019;61.746;16.106;2022-08-21T06:05:41;24.00;50.40
67101;DHT22;54019;61.746;16.106;2022-08-21T06:08:07;24.00;50.40
67101;DHT22;54019;61.746;16.106;2022-08-21T06:10:33;23.90;50.30
67101;DHT22;54019;61.746;16.106;2022-08-21T06:13:00;23.90;50.30
67101;DHT22;54019;61.746;16.106;2022-08-21T06:15:26;23.80;50.30
67101;DHT22;54019;61.746;16.106;2022-08-21T06:17:53;23.70;50.30
67101;DHT22;54019;61.746;16.106;2022-08-21T06:20:19;23.80;50.30
67101;DHT22;54019;61.746;16.106;2022-08-21T06:22:45;23.80;50.50
67101;DHT22;54019;61.746;16.106;2022-08-21T06:25:11;23.80;50.10
67101;DHT22;54019;61.746;16.106;2022-08-21T06:27:36;23.80;50.20
67101;DHT22;54019;61.746;16.106;2022-08-21T06:30:05;23.80;50.20
67101;DHT22;54019;61.746;16.106;2022-08-21T06:32:31;23.80;50.30
67101;DHT22;54019;61.746;16.106;2022-08-21T06:34:57;23.70;50.30
67101;DHT22;54019;61.746;16.106;2022-08-21T06:37:26;23.70;50.90
67101;DHT22;54019;61.746;16.106;2022-08-21T06:39:52;23.60;50.40
67101;DHT22;54019;61.746;16.106;2022-08-21T06:42:18;23.60;50.60
67101;DHT22;54019;61.746;16.106;2022-08-21T06:44:44;23.50;51.20
67101;DHT22;54019;61.746;16.106;2022-08-21T06:47:11;23.50;50.80
67101;DHT22;54019;61.746;16.106;2022-08-21T06:49:37;23.40;51.60
67101;DHT22;54019;61.746;16.106;2022-08-21T06:52:03;23.40;50.80
67101;DHT22;54019;61.746;16.106;2022-08-21T06:54:29;23.40;51.30
67101;DHT22;54019;61.746;16.106;2022-08-21T06:56:55;23.40;51.00
67101;DHT22;54019;61.746;16.106;2022-08-21T06:59:20;23.30;50.90
67101;DHT22;54019;61.746;16.106;2022-08-21T07:01:46;23.30;51.60
67101;DHT22;54019;61.746;16.106;2022-08-21T07:04:13;23.40;51.60
67101;DHT22;54019;61.746;16.106;2022-08-21T07:06:39;23.30;51.10
67101;DHT22;54019;61.746;16.106;2022-08-21T07:09:05;23.30;51.20
67101;DHT22;54019;61.746;16.106;2022-08-21T07:11:31;23.30;51.80
67101;DHT22;54019;61.746;16.106;2022-08-21T07:13:57;23.30;51.90
67101;DHT22;54019;61.746;16.106;2022-08-21T07:16:23;23.30;51.90
67101;DHT22;54019;61.746;16.106;2022-08-21T07:18:49;23.30;51.90
67101;DHT22;54019;61.746;16.106;2022-08-21T07:21:17;23.30;52.30
67101;DHT22;54019;61.746;16.106;2022-08-21T07:23:45;23.30;52.20
67101;DHT22;54019;61.746;16.106;2022-08-21T07:26:12;23.30;52.30
67101;DHT22;54019;61.746;16.106;2022-08-21T07:28:39;23.30;52.10
67101;DHT22;54019;61.746;16.106;2022-08-21T07:31:05;23.30;52.10
67101;DHT22;54019;61.746;16.106;2022-08-21T07:33:33;23.20;52.30
67101;DHT22;54019;61.746;16.106;2022-08-21T07:35:59;23.10;52.10
67101;DHT22;54019;61.746;16.106;2022-08-21T07:38:26;23.10;52.40
67101;DHT22;54019;61.746;16.106;2022-08-21T07:40:54;23.10;52.30
67101;DHT22;54019;61.746;16.106;2022-08-21T07:43:21;23.20;52.40
67101;DHT22;54019;61.746;16.106;2022-08-21T07:45:47;23.20;52.20
67101;DHT22;54019;61.746;16.106;2022-08-21T07:48:13;23.20;52.50
67101;DHT22;54019;61.746;16.106;2022-08-21T07:50:40;23.20;52.10
67101;DHT22;54019;61.746;16.106;2022-08-21T07:53:06;23.20;51.80
67101;DHT22;54019;61.746;16.106;2022-08-21T07:55:33;23.20;52.30
67101;DHT22;54019;61.746;16.106;2022-08-21T07:57:59;23.20;52.20
67101;DHT22;54019;61.746;16.106;2022-08-21T08:00:26;23.20;52.10
67101;DHT22;54019;61.746;16.106;2022-08-21T08:02:52;23.20;52.10
67101;DHT22;54019;61.746;16.106;2022-08-21T08:05:21;23.10;52.50
67101;DHT22;54019;61.746;16.106;2022-08-21T08:07:47;23.00;52.80
67101;DHT22;54019;61.746;16.106;2022-08-21T08:10:15;22.80;53.80
67101;DHT22;54019;61.746;16.106;2022-08-21T08:12:43;23.00;53.50
67101;DHT22;54019;61.746;16.106;2022-08-21T08:15:11;23.00;53.10
67101;DHT22;54019;61.746;16.106;2022-08-21T08:17:37;23.00;53.00
67101;DHT22;54019;61.746;16.106;2022-08-21T08:20:04;23.00;53.00
67101;DHT22;54019;61.746;16.106;2022-08-21T08:22:30;23.10;52.80
67101;DHT22;54019;61.746;16.106;2022-08-21T08:24:56;23.10;52.90
67101;DHT22;54019;61.746;16.106;2022-08-21T08:27:22;23.10;52.50
67101;DHT22;54019;61.746;16.106;2022-08-21T08:29:49;23.10;52.60
67101;DHT22;54019;61.746;16.106;2022-08-21T08:32:15;23.20;52.40
67101;DHT22;54019;61.746;16.106;2022-08-21T08:34:41;23.20;52.30
67101;DHT22;54019;61.746;16.106;2022-08-21T08:37:08;23.20;52.00
67101;DHT22;54019;61.746;16.106;2022-08-21T08:39:35;23.30;51.90
67101;DHT22;54019;61.746;16.106;2022-08-21T08:42:05;23.20;51.30
67101;DHT22;54019;61.746;16.106;2022-08-21T08:44:31;23.20;51.60
67101;DHT22;54019;61.746;16.106;2022-08-21T08:46:59;23.20;52.40
67101;DHT22;54019;61.746;16.106;2022-08-21T08:49:30;23.30;52.00
67101;DHT22;54019;61.746;16.106;2022-08-21T08:52:01;23.30;51.80
67101;DHT22;54019;61.746;16.106;2022-08-21T08:54:31;23.40;51.90
67101;DHT22;54019;61.746;16.106;2022-08-21T08:56:58;23.40;51.80
67101;DHT22;54019;61.746;16.106;2022-08-21T08:59:27;23.40;52.30
67101;DHT22;54019;61.746;16.106;2022-08-21T09:01:55;23.50;52.40
67101;DHT22;54019;61.746;16.106;2022-08-21T09:04:25;23.50;52.10
67101;DHT22;54019;61.746;16.106;2022-08-21T09:07:01;23.50;52.30
67101;DHT22;54019;61.746;16.106;2022-08-21T09:09:38;23.50;52.50
67101;DHT22;54019;61.746;16.106;2022-08-21T09:12:10;23.60;53.40
67101;DHT22;54019;61.746;16.106;2022-08-21T09:14:50;23.60;53.00
67101;DHT22;54019;61.746;16.106;2022-08-21T09:17:32;23.60;53.20
67101;DHT22;54019;61.746;16.106;2022-08-21T09:20:12;23.60;52.10
67101;DHT22;54019;61.746;16.106;2022-08-21T09:22:46;23.60;51.80
67101;DHT22;54019;61.746;16.106;2022-08-21T09:25:19;23.50;51.50
67101;DHT22;54019;61.746;16.106;2022-08-21T09:27:46;23.50;51.10
67101;DHT22;54019;61.746;16.106;2022-08-21T09:30:12;23.50;50.90
67101;DHT22;54019;61.746;16.106;2022-08-21T09:32:39;23.40;50.60
67101;DHT22;54019;61.746;16.106;2022-08-21T09:35:09;23.40;50.70
67101;DHT22;54019;61.746;16.106;2022-08-21T09:37:50;23.30;51.20
67101;DHT22;54019;61.746;16.106;2022-08-21T09:40:23;23.30;51.20
67101;DHT22;54019;61.746;16.106;2022-08-21T09:42:56;23.40;51.10
67101;DHT22;54019;61.746;16.106;2022-08-21T09:45:22;23.40;51.20
67101;DHT22;54019;61.746;16.106;2022-08-21T09:47:48;23.30;52.90
67101;DHT22;54019;61.746;16.106;2022-08-21T09:50:18;23.30;52.30
67101;DHT22;54019;61.746;16.106;2022-08-21T09:52:48;23.40;52.50
67101;DHT22;54019;61.746;16.106;2022-08-21T09:55:21;23.40;52.10
67101;DHT22;54019;61.746;16.106;2022-08-21T09:57:48;23.40;51.60
67101;DHT22;54019;61.746;16.106;2022-08-21T10:00:19;23.40;51.60
67101;DHT22;54019;61.746;16.106;2022-08-21T10:02:45;23.30;51.60
67101;DHT22;54019;61.746;16.106;2022-08-21T10:05:20;23.40;51.70
67101;DHT22;54019;61.746;16.106;2022-08-21T10:07:46;23.30;51.80
67101;DHT22;54019;61.746;16.106;2022-08-21T10:10:16;23.30;51.50
67101;DHT22;54019;61.746;16.106;2022-08-21T10:12:49;23.40;51.30
67101;DHT22;54019;61.746;16.106;2022-08-21T10:15:23;23.30;51.60
67101;DHT22;54019;61.746;16.106;2022-08-21T10:17:59;23.10;52.10
67101;DHT22;54019;61.746;16.106;2022-08-21T10:20:37;23.10;52.50
67101;DHT22;54019;61.746;16.106;2022-08-21T10:23:13;23.10;52.50
67101;DHT22;54019;61.746;16.106;2022-08-21T10:25:47;23.20;52.60
67101;DHT22;54019;61.746;16.106;2022-08-21T10:28:19;23.40;52.50
67101;DHT22;54019;61.746;16.106;2022-08-21T10:30:51;23.40;52.60
67101;DHT22;54019;61.746;16.106;2022-08-21T10:33:27;23.50;52.60
67101;DHT22;54019;61.746;16.106;2022-08-21T10:36:02;23.50;52.80
67101;DHT22;54019;61.746;16.106;2022-08-21T10:38:45;23.60;52.80
67101;DHT22;54019;61.746;16.106;2022-08-21T10:41:20;23.50;52.00
67101;DHT22;54019;61.746;16.106;2022-08-21T10:43:54;23.60;52.60
67101;DHT22;54019;61.746;16.106;2022-08-21T10:46:39;23.60;51.50
67101;DHT22;54019;61.746;16.106;2022-08-21T10:49:18;23.60;51.00
67101;DHT22;54019;61.746;16.106;2022-08-21T10:52:07;23.60;50.60
67101;DHT22;54019;61.746;16.106;2022-08-21T10:54:44;23.70;50.70
67101;DHT22;54019;61.746;16.106;2022-08-21T10:57:18;23.60;50.60
67101;DHT22;54019;61.746;16.106;2022-08-21T10:59:51;23.70;50.80
67101;DHT22;54019;61.746;16.106;2022-08-21T11:02:23;23.60;50.60
67101;DHT22;54019;61.746;16.106;2022-08-21T11:04:54;23.60;50.90
67101;DHT22;54019;61.746;16.106;2022-08-21T11:07:28;23.60;50.80
67101;DHT22;54019;61.746;16.106;2022-08-21T11:10:00;23.50;51.00
67101;DHT22;54019;61.746;16.106;2022-08-21T11:12:33;23.50;50.10
67101;DHT22;54019;61.746;16.106;2022-08-21T11:15:07;23.40;49.40
67101;DHT22;54019;61.746;16.106;2022-08-21T11:17:43;23.40;48.40
67101;DHT22;54019;61.746;16.106;2022-08-21T11:20:20;23.30;48.00
67101;DHT22;54019;61.746;16.106;2022-08-21T11:22:52;23.40;48.20
67101;DHT22;54019;61.746;16.106;2022-08-21T11:25:22;23.30;48.30
67101;DHT22;54019;61.746;16.106;2022-08-21T11:27:52;23.30;49.40
67101;DHT22;54019;61.746;16.106;2022-08-21T11:30:21;23.40;49.50
67101;DHT22;54019;61.746;16.106;2022-08-21T11:33:03;23.40;48.70
67101;DHT22;54019;61.746;16.106;2022-08-21T11:35:37;23.40;49.20
67101;DHT22;54019;61.746;16.106;2022-08-21T11:38:17;23.30;48.30
67101;DHT22;54019;61.746;16.106;2022-08-21T11:40:54;23.30;49.20
67101;DHT22;54019;61.746;16.106;2022-08-21T11:43:34;23.20;46.60
67101;DHT22;54019;61.746;16.106;2022-08-21T11:46:11;23.00;47.90
67101;DHT22;54019;61.746;16.106;2022-08-21T11:48:44;23.10;48.90
67101;DHT22;54019;61.746;16.106;2022-08-21T11:51:14;23.20;49.00
67101;DHT22;54019;61.746;16.106;2022-08-21T11:53:46;22.60;46.00
67101;DHT22;54019;61.746;16.106;2022-08-21T11:56:17;22.50;46.20
67101;DHT22;54019;61.746;16.106;2022-08-21T11:58:46;22.70;47.80
67101;DHT22;54019;61.746;16.106;2022-08-21T12:01:17;22.90;47.80
67101;DHT22;54019;61.746;16.106;2022-08-21T12:03:52;23.10;48.50
67101;DHT22;54019;61.746;16.106;2022-08-21T12:06:29;23.20;48.60
67101;DHT22;54019;61.746;16.106;2022-08-21T12:09:00;23.30;49.00
67101;DHT22;54019;61.746;16.106;2022-08-21T12:11:26;23.40;49.20
67101;DHT22;54019;61.746;16.106;2022-08-21T12:13:55;23.50;49.90
67101;DHT22;54019;61.746;16.106;2022-08-21T12:16:30;23.50;48.90
67101;DHT22;54019;61.746;16.106;2022-08-21T12:19:03;23.40;48.50
67101;DHT22;54019;61.746;16.106;2022-08-21T12:21:29;23.50;48.50
67101;DHT22;54019;61.746;16.106;2022-08-21T12:24:19;23.50;48.60
67101;DHT22;54019;61.746;16.106;2022-08-21T12:26:50;23.40;47.70
67101;DHT22;54019;61.746;16.106;2022-08-21T12:29:22;23.40;48.30
67101;DHT22;54019;61.746;16.106;2022-08-21T12:31:59;23.40;47.90
67101;DHT22;54019;61.746;16.106;2022-08-21T12:34:33;23.40;47.50
67101;DHT22;54019;61.746;16.106;2022-08-21T12:37:02;23.30;46.80
67101;DHT22;54019;61.746;16.106;2022-08-21T12:39:32;23.40;47.20
67101;DHT22;54019;61.746;16.106;2022-08-21T12:42:03;23.40;47.40
67101;DHT22;54019;61.746;16.106;2022-08-21T12:44:36;23.30;46.00
67101;DHT22;54019;61.746;16.106;2022-08-21T12:47:05;23.30;46.30
67101;DHT22;54019;61.746;16.106;2022-08-21T12:49:36;23.30;46.00
67101;DHT22;54019;61.746;16.106;2022-08-21T12:52:09;23.20;46.00
67101;DHT22;54019;61.746;16.106;2022-08-21T12:54:41;23.20;45.40
67101;DHT22;54019;61.746;16.106;2022-08-21T12:57:08;23.20;45.50
67101;DHT22;54019;61.746;16.106;2022-08-21T12:59:37;23.10;44.60
67101;DHT22;54019;61.746;16.106;2022-08-21T13:02:14;23.10;44.90
67101;DHT22;54019;61.746;16.106;2022-08-21T13:04:41;23.20;46.10
67101;DHT22;54019;61.746;16.106;2022-08-21T13:07:10;23.20;45.70
67101;DHT22;54019;61.746;16.106;2022-08-21T13:09:42;23.20;44.80
67101;DHT22;54019;61.746;16.106;2022-08-21T13:12:10;23.20;45.00
67101;DHT22;54019;61.746;16.106;2022-08-21T13:14:37;23.10;44.90
67101;DHT22;54019;61.746;16.106;2022-08-21T13:17:05;23.10;45.50
67101;DHT22;54019;61.746;16.106;2022-08-21T13:19:31;23.20;46.50
67101;DHT22;54019;61.746;16.106;2022-08-21T13:21:58;23.10;45.90
67101;DHT22;54019;61.746;16.106;2022-08-21T13:24:26;23.10;45.20
67101;DHT22;54019;61.746;16.106;2022-08-21T13:26:54;23.10;45.20
67101;DHT22;54019;61.746;16.106;2022-08-21T13:29:22;23.20;46.70
67101;DHT22;54019;61.746;16.106;2022-08-21T13:31:51;23.20;46.00
67101;DHT22;54019;61.746;16.106;2022-08-21T13:34:20;23.20;45.90
67101;DHT22;54019;61.746;16.106;2022-08-21T13:36:46;23.20;46.20
67101;DHT22;54019;61.746;16.106;2022-08-21T13:39:15;23.10;45.30
67101;DHT22;54019;61.746;16.106;2022-08-21T13:41:45;23.10;45.20
67101;DHT22;54019;61.746;16.106;2022-08-21T13:44:18;23.10;46.00
67101;DHT22;54019;61.746;16.106;2022-08-21T13:46:44;23.00;45.70
67101;DHT22;54019;61.746;16.106;2022-08-21T13:49:12;23.10;46.30
67101;DHT22;54019;61.746;16.106;2022-08-21T13:51:39;23.10;46.20
67101;DHT22;54019;61.746;16.106;2022-08-21T13:54:15;23.10;46.20
67101;DHT22;54019;61.746;16.106;2022-08-21T13:56:42;23.10;46.30
67101;DHT22;54019;61.746;16.106;2022-08-21T13:59:08;23.10;46.40
67101;DHT22;54019;61.746;16.106;2022-08-21T14:01:38;23.20;46.30
67101;DHT22;54019;61.746;16.106;2022-08-21T14:04:14;23.10;46.00
67101;DHT22;54019;61.746;16.106;2022-08-21T14:06:41;23.00;45.90
67101;DHT22;54019;61.746;16.106;2022-08-21T14:09:11;23.00;45.90
67101;DHT22;54019;61.746;16.106;2022-08-21T14:11:38;23.00;46.40
67101;DHT22;54019;61.746;16.106;2022-08-21T14:14:11;23.00;46.70
67101;DHT22;54019;61.746;16.106;2022-08-21T14:16:44;23.00;47.10
67101;DHT22;54019;61.746;16.106;2022-08-21T14:19:15;23.00;47.20
67101;DHT22;54019;61.746;16.106;2022-08-21T14:21:42;23.10;47.90
67101;DHT22;54019;61.746;16.106;2022-08-21T14:24:11;23.10;47.30
67101;DHT22;54019;61.746;16.106;2022-08-21T14:26:52;23.20;47.10
67101;DHT22;54019;61.746;16.106;2022-08-21T14:29:20;23.20;47.10
67101;DHT22;54019;61.746;16.106;2022-08-21T14:31:51;23.20;47.00
67101;DHT22;54019;61.746;16.106;2022-08-21T14:34:17;23.20;46.70
67101;DHT22;54019;61.746;16.106;2022-08-21T14:36:43;23.10;46.50
67101;DHT22;54019;61.746;16.106;2022-08-21T14:39:09;23.10;46.10
67101;DHT22;54019;61.746;16.106;2022-08-21T14:41:36;23.10;44.90
67101;DHT22;54019;61.746;16.106;2022-08-21T14:44:03;23.10;46.40
67101;DHT22;54019;61.746;16.106;2022-08-21T14:46:30;23.20;45.60
67101;DHT22;54019;61.746;16.106;2022-08-21T14:48:57;23.30;46.20
67101;DHT22;54019;61.746;16.106;2022-08-21T14:51:23;23.30;46.20
67101;DHT22;54019;61.746;16.106;2022-08-21T14:53:49;23.30;45.80
67101;DHT22;54019;61.746;16.106;2022-08-21T14:56:15;23.30;46.10
67101;DHT22;54019;61.746;16.106;2022-08-21T14:58:44;23.30;46.00
67101;DHT22;54019;61.746;16.106;2022-08-21T15:01:12;23.40;49.50
67101;DHT22;54019;61.746;16.106;2022-08-21T15:03:38;23.40;49.50
67101;DHT22;54019;61.746;16.106;2022-08-21T15:06:07;23.50;47.50
67101;DHT22;54019;61.746;16.106;2022-08-21T15:08:33;23.60;51.40
67101;DHT22;54019;61.746;16.106;2022-08-21T15:11:00;23.60;48.70
67101;DHT22;54019;61.746;16.106;2022-08-21T15:13:26;23.60;48.30
67101;DHT22;54019;61.746;16.106;2022-08-21T15:15:53;23.60;47.30
67101;DHT22;54019;61.746;16.106;2022-08-21T15:18:19;23.60;46.70
67101;DHT22;54019;61.746;16.106;2022-08-21T15:20:44;23.60;46.20
67101;DHT22;54019;61.746;16.106;2022-08-21T15:23:12;23.60;46.20